Latest Weather Observations for Eucla

IDW60801

Issued at 1:02 pm WST Saturday 30 April 2016 (issued every 30 minutes, with the page automatically refreshed every 10 minutes)

About weather observations | Map of weather stations | Latest weather observations for WA | Other Formats
Station Details ID: 011003 Name: EUCLA Lat: -31.68 Lon: 128.90 Height: 93.1 m
Data from the previous 72 hours. | See also: Recent months at Eucla
Date/Time
WST
Temp
°C
App
Temp
°C
Dew
Point
Rel
Hum
%
Delta-T
°C
Wind Press
QNH
hPa
Press
MSL
hPa
Rain
since 9 am
mm
Dir
 
Spd
km/h
Gust
km/h
Spd
kts
Gust
kts
30/01:00pm 20.6 15.2 7.9 44 6.6 WSW 26 44 14 24 1012.9 1012.7 0.0
30/12:30pm 20.2 15.6 8.2 46 6.3 W 22 41 12 22 1013.0 1012.8 0.0
30/12:00pm 18.1 12.9 8.9 55 4.8 WSW 26 41 14 22 1013.3 1013.1 0.0
30/11:30am 19.3 14.0 9.8 54 5.1 SW 28 46 15 25 1013.4 1013.2 0.0
30/11:00am 16.9 12.0 11.4 70 3.0 SW 28 41 15 22 1013.5 1013.3 0.0
30/10:30am 17.0 12.0 11.1 68 3.2 SW 28 46 15 25 1013.3 1013.1 0.0
30/10:28am 17.0 12.0 10.8 67 3.3 SW 28 46 15 25 1013.2 1013.0 0.0
30/10:00am 22.0 15.9 8.2 41 7.3 W 30 48 16 26 1012.7 1012.5 0.0
30/09:33am 20.8 14.6 7.8 43 6.8 W 30 50 16 27 1012.6 1012.4 0.0
30/09:30am 21.0 15.1 7.6 42 6.9 W 28 41 15 22 1012.6 1012.4 0.0
30/09:00am 21.3 15.5 7.9 42 7.0 W 28 44 15 24 1012.3 1012.1 0.0
30/08:30am 20.7 16.0 7.7 43 6.7 W 22 37 12 20 1012.2 1012.0 0.0
30/08:00am 19.8 15.4 7.2 44 6.4 WNW 20 35 11 19 1012.1 1011.9 0.0
30/07:30am 17.0 13.3 6.5 50 5.2 NNW 15 20 8 11 1011.5 1011.3 0.0
30/07:00am 14.4 10.6 5.7 56 4.2 NNW 15 19 8 10 1011.3 1011.0 0.0
30/06:30am 12.5 8.2 5.2 61 3.4 NNW 17 20 9 11 1011.1 1010.8 0.0
30/06:00am 11.6 7.6 4.8 63 3.1 NNW 15 17 8 9 1011.1 1010.8 0.0
30/05:30am 11.1 7.4 4.6 64 2.9 NNW 13 19 7 10 1011.1 1010.8 0.0
30/05:00am 11.1 7.4 4.6 64 3.0 NNW 13 17 7 9 1011.2 1010.9 0.0
30/04:30am 10.0 5.8 4.0 66 2.7 NNW 15 19 8 10 1011.1 1010.8 0.0
30/04:00am 9.7 6.2 3.7 66 2.6 NNW 11 13 6 7 1011.1 1010.8 0.0
30/03:30am 10.5 7.1 3.8 63 3.0 NNW 11 13 6 7 1011.1 1010.8 0.0
30/03:00am 12.3 9.0 4.8 60 3.5 NNW 11 15 6 8 1011.0 1010.7 0.0
30/02:30am 11.9 8.4 3.7 57 3.7 NNW 11 15 6 8 1011.1 1010.8 0.0
30/02:00am 13.3 9.6 4.5 55 4.1 NW 13 20 7 11 1011.1 1010.8 0.0
30/01:30am 13.5 9.8 4.4 54 4.2 NW 13 17 7 9 1011.3 1011.0 0.0
30/01:00am 13.8 10.0 4.1 52 4.5 NW 13 17 7 9 1011.3 1011.0 0.0
30/12:30am 14.6 10.1 4.3 50 4.8 NW 17 24 9 13 1011.4 1011.1 0.0
30/12:00am 14.7 10.6 4.4 50 4.8 NW 15 22 8 12 1011.4 1011.1 0.0
 
Date/Time
WST
Temp
°C
App
Temp
°C
Dew
Point
Rel
Hum
%
Delta-T
°C
Wind Press
QNH
hPa
Press
MSL
hPa
Rain
since 9 am
mm
Dir
 
Spd
km/h
Gust
km/h
Spd
kts
Gust
kts
29/11:30pm 14.0 9.8 4.0 51 4.6 NNW 15 19 8 10 1011.5 1011.3 0.0
29/11:00pm 13.7 9.9 4.0 52 4.4 NNW 13 17 7 9 1011.6 1011.4 0.0
29/10:30pm 12.7 8.8 3.4 53 4.2 NNW 13 15 7 8 1012.0 1011.8 0.0
29/10:00pm 12.5 8.5 2.9 52 4.2 NNW 13 15 7 8 1012.2 1012.0 0.0
29/09:30pm 12.4 8.4 2.6 51 4.3 N 13 15 7 8 1012.4 1012.2 0.0
29/09:00pm 12.8 8.7 2.4 49 4.6 N 13 15 7 8 1012.5 1012.3 0.0
29/08:30pm 12.5 8.9 2.7 51 4.3 N 11 13 6 7 1012.4 1012.2 0.0
29/08:00pm 13.2 9.6 3.0 50 4.5 NNW 11 13 6 7 1012.3 1012.1 0.0
29/07:30pm 13.5 9.9 3.0 49 4.7 NNW 11 13 6 7 1012.4 1012.2 0.0
29/07:00pm 14.6 11.0 3.1 46 5.2 NNW 11 13 6 7 1012.3 1012.1 0.0
29/06:30pm 16.5 13.3 3.2 41 6.1 NW 9 11 5 6 1012.2 1012.0 0.0
29/06:00pm 18.9 15.4 3.5 36 7.3 WNW 11 13 6 7 1012.0 1011.8 0.0
29/05:30pm 20.0 16.5 3.3 33 7.9 WNW 11 13 6 7 1011.5 1011.3 0.0
29/05:00pm 21.3 17.4 3.5 31 8.6 WNW 13 22 7 12 1011.3 1011.0 0.0
29/04:30pm 22.4 17.9 4.0 30 9.0 NW 17 28 9 15 1011.1 1010.8 0.0
29/04:00pm 23.2 18.4 4.7 30 9.2 WNW 19 32 10 17 1011.1 1010.8 0.0
29/03:30pm 24.0 19.0 4.4 28 9.8 WNW 20 35 11 19 1011.2 1010.9 0.0
29/03:00pm 24.2 19.3 5.1 29 9.7 WNW 20 35 11 19 1011.4 1011.1 0.0
29/02:30pm 24.4 19.4 4.7 28 9.9 NW 20 33 11 18 1011.4 1011.1 0.0
29/02:00pm 24.6 19.3 4.9 28 9.9 NW 22 37 12 20 1011.4 1011.1 0.0
29/01:30pm 24.7 19.9 5.5 29 9.8 WNW 20 32 11 17 1011.4 1011.1 0.0
29/01:00pm 24.6 19.9 5.9 30 9.6 WNW 20 35 11 19 1011.5 1011.3 0.0
29/12:30pm 24.2 19.5 6.0 31 9.3 WNW 20 32 11 17 1011.6 1011.4 0.0
29/12:00pm 23.7 19.3 6.5 33 8.9 NW 19 30 10 16 1012.0 1011.8 0.0
29/11:30am 23.4 19.0 6.7 34 8.6 WNW 19 30 10 16 1012.8 1012.6 0.0
29/11:00am 23.5 19.5 6.7 34 8.7 WNW 17 26 9 14 1013.3 1013.1 0.0
29/10:30am 22.9 19.0 7.1 36 8.2 W 17 26 9 14 1013.7 1013.5 0.0
29/10:00am 22.0 18.1 7.0 38 7.7 W 17 28 9 15 1014.1 1013.9 0.0
29/09:30am 20.8 17.0 7.4 42 6.9 W 17 26 9 14 1014.3 1014.1 0.0
29/09:00am 19.7 16.3 9.3 51 5.5 WSW 17 24 9 13 1014.8 1014.6 0.0
29/08:30am 19.1 16.1 10.6 58 4.6 W 17 26 9 14 1014.7 1014.5 0.0
29/08:00am 18.0 16.2 10.9 63 3.8 W 11 19 6 10 1014.7 1014.5 0.0
29/07:30am 16.3 14.0 10.4 68 3.1 WNW 13 20 7 11 1014.4 1014.2 0.0
29/07:00am 13.4 11.0 8.5 72 2.5 NW 11 13 6 7 1014.3 1014.1 0.0
29/06:30am 11.8 9.9 9.0 83 1.4 NW 9 11 5 6 1013.8 1013.6 0.0
29/06:00am 8.7 5.6 5.4 80 1.5 NNW 11 13 6 7 1013.4 1013.2 0.0
29/05:30am 8.6 5.3 4.8 77 1.7 NNW 11 13 6 7 1013.1 1012.9 0.0
29/05:00am 8.9 5.9 3.9 71 2.2 NNW 9 13 5 7 1012.8 1012.6 0.0
29/04:30am 9.9 6.6 4.3 68 2.5 NW 11 15 6 8 1012.7 1012.5 0.0
29/04:00am 10.5 6.9 4.9 68 2.5 NW 13 17 7 9 1012.5 1012.3 0.0
29/03:30am 11.2 7.5 4.7 64 3.0 NW 13 19 7 10 1012.1 1011.9 0.0
29/03:00am 11.9 8.6 4.4 60 3.4 NW 11 15 6 8 1012.0 1011.8 0.0
29/02:30am 12.2 8.4 3.9 57 3.7 WNW 13 19 7 10 1011.9 1011.7 0.0
29/02:00am 13.7 9.1 3.8 51 4.5 WNW 17 28 9 15 1011.9 1011.7 0.0
29/01:30am 14.4 10.3 4.1 50 4.7 NW 15 22 8 12 1011.6 1011.4 0.0
29/01:00am 14.6 10.5 4.3 50 4.8 WNW 15 24 8 13 1011.7 1011.5 0.0
29/12:30am 15.0 10.5 4.4 49 4.9 WNW 17 26 9 14 1011.9 1011.7 0.0
29/12:00am 15.7 11.2 4.4 47 5.3 WNW 17 26 9 14 1011.8 1011.6 0.0
 
Date/Time
WST
Temp
°C
App
Temp
°C
Dew
Point
Rel
Hum
%
Delta-T
°C
Wind Press
QNH
hPa
Press
MSL
hPa
Rain
since 9 am
mm
Dir
 
Spd
km/h
Gust
km/h
Spd
kts
Gust
kts
28/11:30pm 17.5 12.1 4.5 42 6.2 WNW 22 32 12 17 1012.0 1011.8 0.0
28/11:00pm 17.2 13.0 5.5 46 5.7 WNW 17 26 9 14 1012.1 1011.9 0.0
28/10:30pm 16.9 13.1 5.8 48 5.4 W 15 20 8 11 1012.3 1012.1 0.0
28/10:00pm 17.2 14.0 7.0 51 5.1 W 13 19 7 10 1012.3 1012.1 0.0
28/09:30pm 18.0 14.4 6.8 48 5.6 W 15 20 8 11 1012.4 1012.2 0.0
28/09:00pm 17.4 14.4 7.7 53 4.9 W 13 17 7 9 1012.2 1012.0 0.0
28/08:30pm 15.9 14.5 10.9 72 2.7 NW 9 13 5 7 1012.3 1012.1 0.0
28/08:00pm 15.6 14.6 12.4 81 1.8 N 9 13 5 7 1011.9 1011.7 0.0
28/07:30pm 16.1 15.2 12.7 80 1.9 NNE 9 11 5 6 1011.5 1011.3 0.0
28/07:00pm 16.7 15.5 12.7 77 2.2 NNE 11 13 6 7 1011.3 1011.0 0.0
28/06:30pm 17.3 16.0 12.6 74 2.6 NNE 11 13 6 7 1011.1 1010.8 0.0
28/06:00pm 17.7 16.4 12.6 72 2.9 NNE 11 13 6 7 1011.1 1010.8 0.0
28/05:30pm 17.8 16.3 12.0 69 3.2 NE 11 15 6 8 1010.6 1010.3 0.0
28/05:00pm 18.3 17.0 12.5 69 3.2 NE 11 15 6 8 1010.5 1010.2 0.0
28/04:30pm 18.9 17.5 12.2 65 3.7 ENE 11 15 6 8 1010.2 1009.9 0.0
28/04:00pm 19.3 17.7 11.6 61 4.3 E 11 15 6 8 1010.4 1010.1 0.0
28/03:30pm 19.9 17.6 11.7 59 4.6 ESE 15 20 8 11 1010.4 1010.1 0.0
28/03:00pm 19.6 17.7 11.9 61 4.3 ESE 13 19 7 10 1010.4 1010.1 0.0
28/02:30pm 20.7 18.5 12.1 58 4.8 ESE 15 19 8 10 1010.5 1010.2 0.0
28/02:00pm 19.8 17.1 10.5 55 5.1 ESE 15 22 8 12 1010.5 1010.2 0.0
28/01:30pm 20.6 17.6 10.7 53 5.4 SE 17 24 9 13 1010.7 1010.4 0.0
28/01:00pm 20.7 17.7 10.5 52 5.6 SE 17 26 9 14 1010.9 1010.6 0.0
28/12:30pm 21.3 18.4 11.1 52 5.6 SE 17 24 9 13 1011.3 1011.0 0.0
28/12:00pm 21.2 18.2 12.1 56 5.1 SSE 19 26 10 14 1011.8 1011.6 0.0
28/11:30am 21.2 18.4 11.5 54 5.4 SE 17 22 9 12 1012.5 1012.3 0.0
28/11:00am 20.7 17.9 11.3 55 5.2 SE 17 28 9 15 1013.1 1012.9 0.0
28/10:30am 22.1 21.6 12.1 53 5.7 N 6 13 3 7 1013.7 1013.5 0.0
28/10:00am 23.0 20.7 10.4 45 6.9 NE 13 20 7 11 1013.9 1013.7 0.0
28/09:30am 21.7 19.7 10.2 48 6.3 ENE 11 20 6 11 1014.5 1014.3 0.0
28/09:00am 21.1 18.9 10.9 52 5.6 NE 13 19 7 10 1015.0 1014.8 0.0
28/08:30am 20.1 18.4 12.6 62 4.2 NE 13 20 7 11 1015.1 1014.9 0.0
28/08:00am 19.0 18.0 13.4 70 3.2 NE 11 13 6 7 1015.3 1015.1 0.0
28/07:30am 16.5 15.7 12.8 79 2.1 NNE 9 15 5 8 1015.6 1015.4 0.0
28/07:00am 13.9 12.8 11.8 87 1.1 NNE 9 9 5 5 1015.4 1015.2 0.0
28/06:30am 10.9 9.2 10.0 94 0.5 NNE 9 11 5 6 1015.1 1014.9 0.0
28/06:00am 9.6 7.6 8.7 94 0.4 N 9 13 5 7 1015.1 1014.9 0.0
28/05:30am 10.2 8.3 9.1 93 0.5 N 9 9 5 5 1015.0 1014.8 0.0
28/05:00am 10.5 9.1 9.4 93 0.6 NNW 7 9 4 5 1015.2 1015.0 0.0
28/04:30am 9.1 7.2 7.5 90 0.8 NW 7 9 4 5 1015.1 1014.9 0.0
28/04:00am 11.5 10.3 10.4 93 0.6 NE 7 7 4 4 1015.1 1014.9 0.0
28/03:30am 10.7 8.9 9.3 91 0.7 ENE 9 11 5 6 1014.8 1014.6 0.0
28/03:00am 11.4 10.1 9.8 90 0.8 ENE 7 7 4 4 1015.0 1014.8 0.0
28/02:30am 11.4 9.7 10.0 91 0.7 E 9 9 5 5 1015.0 1014.8 0.0
28/02:00am 11.2 9.8 9.5 89 0.9 SE 7 7 4 4 1015.2 1015.0 0.0
28/01:30am 11.7 10.3 9.6 87 1.1 SSE 7 7 4 4 1015.3 1015.1 0.0
28/01:00am 13.0 12.1 10.5 85 1.3 SSE 6 7 3 4 1015.6 1015.4 0.0
28/12:30am 13.0 12.0 10.9 87 1.1 SE 7 9 4 5 1015.6 1015.4 0.0
28/12:00am 12.4 11.7 10.1 86 1.2 SSE 4 7 2 4 1015.9 1015.7 0.0
 
Date/Time
WST
Temp
°C
App
Temp
°C
Dew
Point
Rel
Hum
%
Delta-T
°C
Wind Press
QNH
hPa
Press
MSL
hPa
Rain
since 9 am
mm
Dir
 
Spd
km/h
Gust
km/h
Spd
kts
Gust
kts
27/11:30pm 12.2 12.2 9.9 86 1.2 CALM 0 0 0 0 1016.1 1015.9 0.0
27/11:00pm 11.7 11.6 9.4 86 1.2 CALM 0 0 0 0 1016.2 1016.0 0.0
27/10:30pm 11.6 11.1 9.5 87 1.1 S 2 6 1 3 1016.6 1016.4 0.0
27/10:00pm 11.6 11.6 9.7 88 1.0 CALM 0 6 0 3 1016.7 1016.5 0.0
27/09:30pm 12.8 11.7 10.5 86 1.2 S 7 11 4 6 1016.7 1016.5 0.0
27/09:00pm 13.0 11.9 10.5 85 1.3 SSW 7 9 4 5 1016.6 1016.4 0.0
27/08:30pm 14.3 13.4 11.3 82 1.6 SW 7 11 4 6 1016.7 1016.5 0.0
27/08:00pm 14.9 14.1 11.7 81 1.7 S 7 11 4 6 1016.6 1016.4 0.0
27/07:30pm 15.2 14.0 11.6 79 1.9 S 9 11 5 6 1016.6 1016.4 0.0
27/07:00pm 15.4 14.3 11.8 79 2.0 S 9 13 5 7 1016.5 1016.3 0.0
27/06:30pm 15.3 13.7 11.7 79 2.0 S 11 13 6 7 1016.3 1016.1 0.0
27/06:00pm 15.6 14.5 12.0 79 2.0 S 9 11 5 6 1016.0 1015.8 0.0
27/05:30pm 16.2 15.2 12.2 77 2.2 S 9 11 5 6 1015.7 1015.5 0.0
27/05:00pm 17.0 15.6 12.3 74 2.6 S 11 17 6 9 1015.1 1014.9 0.0
27/04:30pm 17.6 15.6 11.6 68 3.3 S 13 17 7 9 1014.8 1014.6 0.0
27/04:00pm 18.1 15.7 11.4 65 3.7 S 15 20 8 11 1014.6 1014.4 0.0
27/03:30pm 18.8 16.0 11.4 62 4.1 S 17 24 9 13 1014.4 1014.2 0.0
27/03:00pm 19.3 16.4 11.1 59 4.5 S 17 26 9 14 1014.0 1013.8 0.0
27/02:30pm 19.3 16.6 11.6 61 4.3 S 17 24 9 13 1013.9 1013.7 0.0
27/02:00pm 20.4 17.5 11.1 55 5.1 SSE 17 26 9 14 1013.7 1013.5 0.0
27/01:30pm 20.6 18.0 12.1 58 4.8 SSE 17 22 9 12 1013.7 1013.5 0.0

Other Formats:

Comma delimited format used in spreadsheet applications
http://www.bom.gov.au/fwo/IDW60801/IDW60801.94647.axf

JavaScript Object Notation format (JSON) in row-major order
http://www.bom.gov.au/fwo/IDW60801/IDW60801.94647.json